Time;durP1;ratioP1;P1;durP2;ratioP2;P2;SDS_P1;SDS_P2;PMS_P1;PMS_P2;Temp;Humidity;BMP_temperature;BMP_pressure;BME280_temperature;BME280_humidity;BME280_pressure;Samples;Min_cycle;Max_cycle;Signal;HPM_P1;HPM_P2
2021/08/23 00:00:24;;;;;;;11.38;8.40;;;;;;;15.88;88.20;102221.34;5067980;28;20044;-74
2021/08/23 00:02:49;;;;;;;11.45;8.52;;;;;;;15.87;88.25;102219.69;5052127;28;20087;-74
2021/08/23 00:05:14;;;;;;;17.25;9.02;;;;;;;15.86;87.96;102220.66;5051746;28;20044;-74
2021/08/23 00:07:40;;;;;;;12.65;8.60;;;;;;;15.84;88.33;102223.47;5051887;28;20030;-74
2021/08/23 00:10:06;;;;;;;14.00;9.70;;;;;;;15.81;88.47;102213.03;5052544;28;20029;-74
2021/08/23 00:12:31;;;;;;;12.55;8.80;;;;;;;15.80;88.32;102223.91;5052152;28;20445;-74
2021/08/23 00:14:57;;;;;;;11.50;9.10;;;;;;;15.77;88.87;102225.00;5052313;28;20067;-74
2021/08/23 00:17:23;;;;;;;14.85;8.90;;;;;;;15.75;88.91;102218.06;5052712;28;20029;-74
2021/08/23 00:19:48;;;;;;;14.80;9.70;;;;;;;15.74;89.22;102225.28;5052023;28;20114;-73
2021/08/23 00:22:31;;;;;;;12.75;9.60;;;;;;;15.73;89.21;102225.41;5052595;28;20115;-74
2021/08/23 00:24:59;;;;;;;14.57;10.10;;;;;;;15.70;89.04;102226.53;5052361;28;20044;-74
2021/08/23 00:27:26;;;;;;;17.60;9.60;;;;;;;15.69;89.04;102233.75;5052809;28;20078;-73
2021/08/23 00:29:51;;;;;;;14.85;9.68;;;;;;;15.71;89.42;102230.09;5051883;28;20033;-74
2021/08/23 00:32:17;;;;;;;15.63;10.02;;;;;;;15.67;89.07;102233.03;5052442;28;20063;-74
2021/08/23 00:34:42;;;;;;;15.10;9.65;;;;;;;15.67;89.19;102237.53;5051637;28;20396;-74
2021/08/23 00:37:08;;;;;;;15.98;10.00;;;;;;;15.65;88.97;102243.03;5052474;28;20033;-73
2021/08/23 00:39:34;;;;;;;14.18;10.23;;;;;;;15.64;88.56;102237.81;5051752;28;20473;-75
2021/08/23 00:42:02;;;;;;;18.88;10.10;;;;;;;15.64;88.30;102245.88;5051433;28;20114;-74
2021/08/23 00:44:28;;;;;;;18.48;10.23;;;;;;;15.60;88.77;102250.69;5052191;28;20056;-74
2021/08/23 00:46:53;;;;;;;14.82;10.25;;;;;;;15.60;88.38;102257.84;5051378;28;20041;-74
2021/08/23 00:49:18;;;;;;;16.73;10.25;;;;;;;15.58;88.19;102247.25;5052001;28;20040;-74
2021/08/23 00:51:44;;;;;;;14.82;9.40;;;;;;;15.57;88.44;102250.09;5051589;28;20040;-74
2021/08/23 00:54:09;;;;;;;13.63;9.60;;;;;;;15.54;89.03;102255.72;5052331;28;20041;-74
2021/08/23 00:56:35;;;;;;;11.75;8.75;;;;;;;15.50;88.68;102256.00;5051570;28;20068;-74
2021/08/23 00:59:01;;;;;;;16.52;9.55;;;;;;;15.49;88.72;102262.34;5052184;28;20060;-74
2021/08/23 01:01:39;;;;;;;16.85;9.85;;;;;;;15.47;88.90;102256.28;5052021;28;20033;-74
2021/08/23 01:04:15;;;;;;;13.88;9.25;;;;;;;15.46;88.73;102267.16;5051653;28;20049;-74
2021/08/23 01:06:41;;;;;;;15.70;8.88;;;;;;;15.44;88.93;102266.44;5051463;28;20525;-74
2021/08/23 01:09:10;;;;;;;17.50;9.52;;;;;;;15.42;88.88;102266.59;5052050;28;20032;-74
2021/08/23 01:11:41;;;;;;;16.48;10.00;;;;;;;15.40;88.77;102273.06;5051591;28;20029;-74
2021/08/23 01:14:07;;;;;;;13.85;9.60;;;;;;;15.39;89.02;102279.41;5051909;28;20082;-74
2021/08/23 01:16:32;;;;;;;16.77;9.60;;;;;;;15.40;88.97;102279.25;5052079;28;20065;-74
2021/08/23 01:18:58;;;;;;;18.08;9.20;;;;;;;15.40;88.98;102281.09;5051208;28;20040;-74
2021/08/23 01:21:26;;;;;;;20.00;9.23;;;;;;;15.38;88.91;102283.09;5052112;28;20025;-74
2021/08/23 01:23:54;;;;;;;15.68;9.50;;;;;;;15.36;88.90;102291.25;5051008;28;20047;-75
2021/08/23 01:26:23;;;;;;;17.75;10.25;;;;;;;15.34;89.46;102290.53;5051926;28;20021;-74
2021/08/23 01:29:02;;;;;;;12.82;9.80;;;;;;;15.31;89.72;102294.31;5051319;28;20031;-74
2021/08/23 01:31:52;;;;;;;17.98;9.25;;;;;;;15.30;89.87;102295.34;5052155;28;20029;-73
2021/08/23 01:34:18;;;;;;;14.88;9.85;;;;;;;15.26;89.68;102291.22;5051861;28;20052;-74
2021/08/23 01:36:44;;;;;;;16.33;8.95;;;;;;;15.24;89.95;102301.22;5051276;28;20029;-74
2021/08/23 01:39:09;;;;;;;12.68;10.18;;;;;;;15.24;90.42;102303.03;5051570;28;20036;-74
2021/08/23 01:41:35;;;;;;;13.30;9.65;;;;;;;15.22;90.29;102300.50;5051517;28;20040;-74
2021/08/23 01:44:00;;;;;;;14.55;9.90;;;;;;;15.21;90.27;102297.94;5050891;28;20539;-74
2021/08/23 01:46:30;;;;;;;14.57;9.52;;;;;;;15.21;90.66;102303.31;5050403;28;20031;-74
2021/08/23 01:48:57;;;;;;;10.73;8.77;;;;;;;15.20;90.74;102298.94;5050830;28;20511;-71
2021/08/23 01:51:23;;;;;;;15.60;9.10;;;;;;;15.19;90.24;102305.28;5055550;28;20448;-71
2021/08/23 01:53:48;;;;;;;14.48;9.10;;;;;;;15.19;90.63;102310.66;5037922;22;20145;-73
2021/08/23 01:56:13;;;;;;;16.77;9.45;;;;;;;15.18;90.48;102298.22;5015478;28;20045;-73
2021/08/23 01:58:39;;;;;;;15.90;8.73;;;;;;;15.18;90.34;102311.63;5015159;28;20034;-73
2021/08/23 02:01:04;;;;;;;11.82;9.30;;;;;;;15.19;89.99;102306.13;5014545;28;20033;-73
2021/08/23 02:03:29;;;;;;;12.25;8.38;;;;;;;15.20;90.18;102310.53;4997627;28;20486;-73
2021/08/23 02:05:55;;;;;;;9.75;7.45;;;;;;;15.22;89.99;102315.75;5014346;28;20037;-73
2021/08/23 02:08:20;;;;;;;10.80;7.55;;;;;;;15.23;90.09;102317.47;5015210;28;20068;-73
2021/08/23 02:10:45;;;;;;;13.68;7.55;;;;;;;15.24;89.76;102314.63;5014405;28;20100;-74
2021/08/23 02:13:11;;;;;;;8.80;7.28;;;;;;;15.23;89.07;102318.28;5015305;28;20061;-74
2021/08/23 02:15:36;;;;;;;10.65;7.68;;;;;;;15.25;88.66;102323.53;5015255;28;20076;-73
2021/08/23 02:18:02;;;;;;;12.10;7.15;;;;;;;15.25;88.86;102326.19;4996879;28;20863;-73
2021/08/23 02:20:27;;;;;;;11.38;7.03;;;;;;;15.25;88.76;102332.41;4997626;28;20398;-73
2021/08/23 02:22:53;;;;;;;10.93;6.95;;;;;;;15.26;88.66;102334.13;5014464;28;20049;-74
2021/08/23 02:25:22;;;;;;;12.27;6.85;;;;;;;15.25;87.68;102337.75;5014923;28;20453;-74
2021/08/23 02:27:51;;;;;;;22.13;6.78;;;;;;;15.26;88.16;102339.47;5014214;28;20096;-74
2021/08/23 02:30:16;;;;;;;13.10;6.43;;;;;;;15.27;87.93;102338.50;5015040;28;20030;-73
2021/08/23 02:32:42;;;;;;;12.68;6.28;;;;;;;15.27;87.03;102346.53;5014840;28;20105;-73
2021/08/23 02:35:08;;;;;;;7.43;5.35;;;;;;;15.27;87.76;102357.28;5014154;28;20034;-73
2021/08/23 02:37:33;;;;;;;19.80;6.72;;;;;;;15.27;88.06;102353.72;5014733;28;20038;-74
2021/08/23 02:39:59;;;;;;;13.55;6.57;;;;;;;15.25;87.53;102361.06;5014088;28;20038;-74
2021/08/23 02:42:24;;;;;;;12.40;6.38;;;;;;;15.26;86.60;102357.41;5014866;28;20450;-74
2021/08/23 02:44:49;;;;;;;9.32;5.55;;;;;;;15.27;87.15;102359.94;4996388;28;20096;-74
2021/08/23 02:47:15;;;;;;;10.77;5.68;;;;;;;15.27;87.19;102368.00;5014539;28;20030;-73
2021/08/23 02:49:40;;;;;;;13.10;5.60;;;;;;;15.27;87.18;102367.13;4997047;28;20048;-74
2021/08/23 02:52:05;;;;;;;10.23;4.95;;;;;;;15.26;86.77;102368.97;5013554;28;20030;-73
2021/08/23 02:54:31;;;;;;;10.43;5.80;;;;;;;15.25;87.05;102369.09;5014445;28;20124;-73
2021/08/23 02:56:56;;;;;;;9.95;5.10;;;;;;;15.25;87.16;102371.78;5013620;28;20038;-74
2021/08/23 02:59:22;;;;;;;9.18;5.18;;;;;;;15.25;86.88;102375.31;5014160;28;20077;-73
2021/08/23 03:01:47;;;;;;;9.95;4.80;;;;;;;15.24;86.17;102378.13;5014019;28;20033;-73
2021/08/23 03:04:13;;;;;;;12.48;4.45;;;;;;;15.25;86.77;102385.19;5013026;28;20434;-73
2021/08/23 03:06:38;;;;;;;10.77;4.88;;;;;;;15.24;86.75;102395.06;5014084;28;20446;-73
2021/08/23 03:09:03;;;;;;;9.70;4.40;;;;;;;15.23;87.33;102395.22;5013521;28;20026;-74
2021/08/23 03:11:30;;;;;;;14.68;4.43;;;;;;;15.22;86.87;102390.81;5014494;28;20058;-73
2021/08/23 03:13:55;;;;;;;14.57;4.40;;;;;;;15.22;86.37;102388.13;5013442;28;20112;-73
2021/08/23 03:16:21;;;;;;;12.88;4.78;;;;;;;15.21;86.68;102394.47;5014017;28;20125;-74
2021/08/23 03:18:46;;;;;;;11.45;4.00;;;;;;;15.22;86.88;102402.38;5014002;28;20037;-74
2021/08/23 03:21:12;;;;;;;8.57;4.00;;;;;;;15.22;87.01;102402.38;4995653;28;20037;-73
2021/08/23 03:23:37;;;;;;;6.85;3.70;;;;;;;15.23;86.40;102405.94;4996224;28;20049;-73
2021/08/23 03:26:04;;;;;;;10.68;3.88;;;;;;;15.23;86.26;102403.25;5012835;28;20033;-74
2021/08/23 03:28:30;;;;;;;11.77;4.05;;;;;;;15.24;86.41;102402.25;5014181;28;20042;-74
2021/08/23 03:30:56;;;;;;;12.95;4.65;;;;;;;15.25;86.72;102402.13;5012930;28;20029;-74
2021/08/23 03:33:21;;;;;;;11.13;3.95;;;;;;;15.23;86.80;102401.41;5015044;28;20038;-73
2021/08/23 03:35:47;;;;;;;12.85;3.90;;;;;;;15.23;86.79;102404.09;5013971;28;20113;-73
2021/08/23 03:38:13;;;;;;;8.52;3.78;;;;;;;15.22;86.52;102405.06;5013133;28;20470;-74
2021/08/23 03:40:39;;;;;;;14.68;3.75;;;;;;;15.23;85.74;102414.81;5013590;28;20101;-73
2021/08/23 03:43:04;;;;;;;12.40;3.40;;;;;;;15.24;86.69;102411.16;5012815;28;20033;-74
2021/08/23 03:45:30;;;;;;;8.95;3.40;;;;;;;15.23;86.42;102413.97;5014052;28;20034;-73
2021/08/23 03:47:55;;;;;;;7.43;3.03;;;;;;;15.23;85.74;102420.19;4995491;28;20029;-73
2021/08/23 03:50:21;;;;;;;13.18;3.50;;;;;;;15.23;85.51;102413.97;5013305;28;20512;-72
2021/08/23 03:52:47;;;;;;;9.63;3.50;;;;;;;15.21;86.58;102427.50;4992028;28;20093;-73
2021/08/23 03:55:12;;;;;;;10.38;3.50;;;;;;;15.21;86.38;102432.88;4993154;28;20114;-73
2021/08/23 03:57:38;;;;;;;14.48;3.17;;;;;;;15.20;86.87;102414.22;4993751;28;20030;-73
2021/08/23 04:00:06;;;;;;;11.02;3.70;;;;;;;15.20;86.39;102424.94;4993056;28;20339;-74
2021/08/23 04:02:32;;;;;;;10.02;3.28;;;;;;;15.19;85.82;102428.63;4993618;28;20045;-73
2021/08/23 04:04:57;;;;;;;8.55;3.10;;;;;;;15.19;84.83;102440.19;4993024;28;20041;-74
2021/08/23 04:07:23;;;;;;;16.15;3.50;;;;;;;15.19;85.06;102437.50;4992295;28;20034;-73
2021/08/23 04:09:48;;;;;;;9.50;3.72;;;;;;;15.16;85.15;102441.28;4993208;28;20037;-73
2021/08/23 04:12:13;;;;;;;10.43;3.53;;;;;;;15.16;84.72;102441.28;4992781;28;20046;-73
2021/08/23 04:14:39;;;;;;;8.55;3.50;;;;;;;15.18;84.37;102443.00;4993420;28;20035;-73
2021/08/23 04:17:04;;;;;;;9.95;3.63;;;;;;;15.18;85.27;102448.34;4992748;28;20034;-73
2021/08/23 04:19:31;;;;;;;11.60;3.65;;;;;;;15.19;84.88;102452.75;4993575;28;20045;-73
2021/08/23 04:21:56;;;;;;;10.85;3.60;;;;;;;15.18;85.44;102459.09;4993461;28;20037;-74
2021/08/23 04:24:22;;;;;;;9.00;3.22;;;;;;;15.16;84.57;102456.53;4992735;28;20034;-73
2021/08/23 04:26:47;;;;;;;11.27;3.42;;;;;;;15.16;85.17;102454.69;4992959;28;20037;-73
2021/08/23 04:29:13;;;;;;;10.77;3.47;;;;;;;15.14;84.89;102455.81;4992404;28;20058;-73
2021/08/23 04:31:39;;;;;;;8.63;3.20;;;;;;;15.13;85.01;102462.16;4992969;28;20040;-73
2021/08/23 04:34:04;;;;;;;13.70;2.92;;;;;;;15.12;85.09;102473.84;4992638;28;20034;-73
2021/08/23 04:36:29;;;;;;;8.38;3.17;;;;;;;15.13;84.32;102476.41;4992127;28;20027;-73
2021/08/23 04:38:55;;;;;;;4.53;2.78;;;;;;;15.13;84.77;102478.25;4992989;28;20030;-72
2021/08/23 04:41:20;;;;;;;7.90;2.75;;;;;;;15.12;85.25;102488.13;4992182;28;20034;-73
2021/08/23 04:43:46;;;;;;;8.45;3.33;;;;;;;15.11;84.86;102486.41;4991749;28;20045;-73
2021/08/23 04:46:11;;;;;;;8.48;3.10;;;;;;;15.12;84.27;102484.56;4992389;28;20034;-73
2021/08/23 04:48:36;;;;;;;10.68;3.55;;;;;;;15.12;84.78;102498.84;4993333;28;20459;-72
2021/08/23 04:51:03;;;;;;;11.90;3.20;;;;;;;15.13;84.61;102499.69;4992481;28;20439;-74
2021/08/23 04:53:29;;;;;;;9.73;3.10;;;;;;;15.11;84.34;102496.28;5006102;28;20057;-72
2021/08/23 04:55:55;;;;;;;8.95;3.00;;;;;;;15.09;84.62;102496.44;5012698;28;20103;-73
2021/08/23 04:58:21;;;;;;;11.07;2.97;;;;;;;15.08;84.01;102505.44;5011699;28;20045;-73
2021/08/23 05:00:47;;;;;;;9.48;3.22;;;;;;;15.11;84.31;102509.69;4994971;28;20038;-72
2021/08/23 05:03:12;;;;;;;7.40;2.97;;;;;;;15.09;84.03;102507.16;4994287;28;20033;-73
2021/08/23 05:05:38;;;;;;;5.45;2.60;;;;;;;15.11;84.81;102517.75;5012430;28;20050;-73
2021/08/23 05:08:04;;;;;;;14.80;3.40;;;;;;;15.11;84.83;102528.47;5012528;28;20034;-73
2021/08/23 05:10:29;;;;;;;9.40;3.03;;;;;;;15.12;84.70;102528.34;4994880;28;20040;-72
2021/08/23 05:12:55;;;;;;;14.50;3.10;;;;;;;15.12;84.79;102530.16;5012164;28;20030;-74
2021/08/23 05:15:22;;;;;;;9.05;2.88;;;;;;;15.12;85.07;102524.78;5011878;28;20076;-73
2021/08/23 05:17:47;;;;;;;15.13;3.22;;;;;;;15.12;85.64;102533.69;5012518;28;20040;-72
2021/08/23 05:20:13;;;;;;;11.45;3.53;;;;;;;15.12;85.77;102533.69;5011498;28;20038;-73
2021/08/23 05:22:38;;;;;;;13.45;4.18;;;;;;;15.13;86.12;102524.66;5012367;28;20034;-72
2021/08/23 05:25:05;;;;;;;10.63;3.63;;;;;;;15.12;86.35;102533.69;5012124;28;20041;-72
2021/08/23 05:27:30;;;;;;;11.45;3.50;;;;;;;15.13;86.50;102537.22;5013370;28;20033;-73
2021/08/23 05:29:59;;;;;;;7.88;3.53;;;;;;;15.14;86.65;102539.78;5015996;28;20036;-72
2021/08/23 05:32:25;;;;;;;8.65;3.22;;;;;;;15.16;87.30;102543.16;5015448;28;20041;-73
2021/08/23 05:34:50;;;;;;;8.07;3.53;;;;;;;15.19;87.17;102546.59;5015855;28;20037;-72
2021/08/23 05:37:15;;;;;;;8.18;2.95;;;;;;;15.21;87.26;102547.28;5015295;28;20029;-73
2021/08/23 05:39:41;;;;;;;13.25;3.58;;;;;;;15.26;87.78;102558.50;4998434;28;20072;-73
2021/08/23 05:42:06;;;;;;;11.27;3.53;;;;;;;15.27;86.99;102553.00;5015875;28;20030;-73
2021/08/23 05:44:31;;;;;;;10.25;3.47;;;;;;;15.31;86.85;102557.13;5014970;28;20038;-73
2021/08/23 05:46:57;;;;;;;7.60;3.25;;;;;;;15.34;86.98;102564.06;5015742;28;20117;-73
2021/08/23 05:49:22;;;;;;;8.68;3.47;;;;;;;15.39;87.23;102567.22;5015410;28;20033;-73
2021/08/23 05:51:47;;;;;;;9.98;3.47;;;;;;;15.43;86.94;102565.97;5015707;28;20041;-73
2021/08/23 05:54:13;;;;;;;12.60;3.58;;;;;;;15.46;87.44;102568.38;4996746;28;20137;-73
2021/08/23 05:56:40;;;;;;;8.68;3.33;;;;;;;15.50;86.82;102567.16;5015183;28;20092;-73
2021/08/23 05:59:07;;;;;;;12.93;3.15;;;;;;;15.54;86.62;102570.44;5015471;28;20478;-73
2021/08/23 06:01:33;;;;;;;10.38;3.90;;;;;;;15.59;86.75;102567.38;5014826;28;20034;-73
2021/08/23 06:03:58;;;;;;;13.15;4.40;;;;;;;15.63;87.03;102579.53;5015481;28;20034;-73
2021/08/23 06:06:24;;;;;;;7.95;3.60;;;;;;;15.69;86.90;102581.72;5014730;28;20028;-73
2021/08/23 06:08:49;;;;;;;10.55;4.22;;;;;;;15.73;85.94;102572.41;4997385;28;20458;-73
2021/08/23 06:11:14;;;;;;;14.70;4.05;;;;;;;15.78;86.20;102572.03;5014821;28;20033;-73
2021/08/23 06:13:40;;;;;;;7.35;3.50;;;;;;;15.84;86.51;102575.06;5015326;28;20374;-72
2021/08/23 06:16:05;;;;;;;8.82;3.60;;;;;;;15.89;85.70;102574.66;5015301;28;20045;-73
2021/08/23 06:18:31;;;;;;;7.78;3.60;;;;;;;15.94;85.79;102576.94;5014303;28;20041;-73
2021/08/23 06:20:59;;;;;;;11.48;3.95;;;;;;;15.99;85.27;102578.25;5015176;28;20474;-73
2021/08/23 06:23:25;;;;;;;10.73;3.88;;;;;;;16.03;85.57;102578.81;5014147;28;20125;-72
2021/08/23 06:25:50;;;;;;;10.55;3.15;;;;;;;16.11;85.70;102575.47;5014704;28;20435;-73
2021/08/23 06:28:15;;;;;;;12.75;3.25;;;;;;;16.18;85.53;102576.66;5014404;28;20053;-73
2021/08/23 06:30:41;;;;;;;9.32;3.28;;;;;;;16.24;84.89;102577.94;4997336;28;20040;-73
2021/08/23 06:33:06;;;;;;;9.63;3.05;;;;;;;16.31;84.05;102576.44;4997440;28;20026;-73
2021/08/23 06:35:32;;;;;;;15.90;3.85;;;;;;;16.37;83.97;102581.25;5014418;28;20045;-73
2021/08/23 06:37:57;;;;;;;15.15;3.45;;;;;;;16.44;84.11;102581.59;5015069;28;20032;-72
2021/08/23 06:40:22;;;;;;;8.95;3.22;;;;;;;16.50;84.21;102578.34;5014442;28;20038;-73
2021/08/23 06:42:48;;;;;;;6.68;3.00;;;;;;;16.56;84.30;102580.50;4997134;28;20084;-74
2021/08/23 06:45:13;;;;;;;11.95;3.25;;;;;;;16.60;83.95;102586.44;5014294;28;20084;-72
2021/08/23 06:47:38;;;;;;;10.40;4.07;;;;;;;16.63;83.71;102587.03;5014021;28;20100;-72
2021/08/23 06:50:05;;;;;;;10.10;3.38;;;;;;;16.70;83.25;102590.00;5014596;28;20030;-71
2021/08/23 06:52:30;;;;;;;6.80;2.83;;;;;;;16.77;83.37;102587.63;5013395;28;20057;-72
2021/08/23 06:54:56;;;;;;;13.15;3.28;;;;;;;16.80;83.51;102593.56;4997159;28;20041;-72
2021/08/23 06:57:21;;;;;;;7.63;3.13;;;;;;;16.88;83.22;102595.59;5013862;28;20033;-72
2021/08/23 06:59:46;;;;;;;8.95;2.92;;;;;;;16.96;81.56;102597.59;5014422;28;20497;-72
2021/08/23 07:02:12;;;;;;;9.68;3.25;;;;;;;17.06;81.62;102609.22;5014387;28;20041;-72
2021/08/23 07:04:37;;;;;;;12.50;3.05;;;;;;;17.13;81.47;102610.38;5013619;28;20835;-73
2021/08/23 07:07:03;;;;;;;9.77;2.80;;;;;;;17.21;81.49;102623.97;5014305;28;20037;-73
2021/08/23 07:09:28;;;;;;;8.45;2.92;;;;;;;17.31;80.18;102623.97;5013656;28;20045;-73
2021/08/23 07:11:54;;;;;;;9.73;2.83;;;;;;;17.41;79.79;102622.16;5014160;28;20107;-73
2021/08/23 07:14:19;;;;;;;9.10;2.58;;;;;;;17.48;79.55;102629.66;5013493;28;20036;-74
2021/08/23 07:16:45;;;;;;;6.03;2.75;;;;;;;17.57;79.10;102632.34;5014155;28;20038;-73
2021/08/23 07:19:10;;;;;;;10.43;3.35;;;;;;;17.66;78.62;102633.34;5013759;28;20038;-73
2021/08/23 07:21:36;;;;;;;12.63;2.90;;;;;;;17.68;77.55;102638.59;4995869;28;20025;-72
2021/08/23 07:24:01;;;;;;;8.10;3.30;;;;;;;17.77;77.38;102633.19;5014011;28;20139;-73
2021/08/23 07:26:26;;;;;;;6.03;2.50;;;;;;;17.81;76.57;102636.47;5013304;28;20037;-73
2021/08/23 07:29:12;;;;;;;11.50;3.03;;;;;;;17.84;76.63;102641.56;5013831;28;20044;-73
2021/08/23 07:31:39;;;;;;;10.20;2.88;;;;;;;17.86;75.34;102641.41;5013519;28;20121;-73
2021/08/23 07:34:04;;;;;;;8.82;2.67;;;;;;;17.96;75.39;102637.75;5013818;28;20085;-73
2021/08/23 07:36:29;;;;;;;13.57;3.20;;;;;;;18.12;74.63;102644.34;5012856;28;20034;-73
2021/08/23 07:38:55;;;;;;;10.77;2.70;;;;;;;18.32;74.88;102647.88;5013281;28;20515;-73
2021/08/23 07:41:20;;;;;;;9.73;2.83;;;;;;;18.54;73.89;102641.28;5013309;28;20030;-73
2021/08/23 07:43:46;;;;;;;6.68;2.72;;;;;;;18.78;73.45;102638.03;5012931;28;20505;-73
2021/08/23 07:46:11;;;;;;;9.95;2.75;;;;;;;18.90;71.82;102637.84;5013419;28;20120;-73
2021/08/23 07:48:37;;;;;;;7.95;3.10;;;;;;;18.99;69.73;102636.97;5012850;28;20367;-73
2021/08/23 07:51:02;;;;;;;5.75;2.67;;;;;;;19.14;70.65;102640.84;5013213;28;20065;-73
2021/08/23 07:53:27;;;;;;;12.20;3.00;;;;;;;19.16;68.75;102644.22;5012751;28;20052;-74
2021/08/23 07:55:53;;;;;;;6.85;2.40;;;;;;;19.33;68.93;102642.56;5013555;28;20034;-73
2021/08/23 07:58:18;;;;;;;6.40;2.60;;;;;;;19.60;68.52;102642.63;5013470;28;20037;-73
2021/08/23 08:00:44;;;;;;;5.38;2.50;;;;;;;19.86;68.20;102646.25;5012494;28;20033;-73
2021/08/23 08:03:09;;;;;;;4.18;2.22;;;;;;;19.93;64.80;102642.91;5013342;28;20037;-73
2021/08/23 08:05:38;;;;;;;12.38;3.28;;;;;;;19.84;65.96;102645.56;5012289;28;20033;-74
2021/08/23 08:08:07;;;;;;;5.38;2.78;;;;;;;19.87;67.84;102647.09;4995994;28;20072;-73
2021/08/23 08:10:34;;;;;;;7.55;2.75;;;;;;;19.94;65.55;102648.16;5012568;28;20073;-73
2021/08/23 08:13:00;;;;;;;9.90;2.78;;;;;;;19.95;67.70;102646.31;5012788;28;20038;-73
2021/08/23 08:15:26;;;;;;;6.57;2.28;;;;;;;20.12;64.16;102640.00;5013153;28;20037;-73
2021/08/23 08:17:51;;;;;;;9.82;2.83;;;;;;;20.50;64.41;102640.59;5012503;28;20038;-73
2021/08/23 08:20:16;;;;;;;6.63;2.28;;;;;;;20.90;61.97;102649.03;5013179;28;20386;-73
2021/08/23 08:22:44;;;;;;;9.30;2.58;;;;;;;21.11;60.19;102645.94;5012471;28;20034;-74
2021/08/23 08:25:10;;;;;;;7.25;2.72;;;;;;;21.61;59.78;102650.41;5012695;28;20040;-73
2021/08/23 08:27:36;;;;;;;8.70;2.50;;;;;;;21.74;57.97;102658.03;5012404;28;20033;-73
2021/08/23 08:30:01;;;;;;;7.00;2.55;;;;;;;21.53;59.41;102660.38;5012865;28;20036;-73
2021/08/23 08:32:27;;;;;;;6.72;2.90;;;;;;;21.37;59.95;102663.91;5012686;28;20096;-74
2021/08/23 08:34:52;;;;;;;8.57;2.72;;;;;;;21.24;59.91;102653.53;5012244;28;20033;-73
2021/08/23 08:37:18;;;;;;;9.45;2.30;;;;;;;21.19;59.43;102664.03;5013132;28;20030;-74
2021/08/23 08:39:43;;;;;;;6.78;2.33;;;;;;;21.13;60.07;102665.53;5012118;28;20026;-74
2021/08/23 08:42:09;;;;;;;8.07;2.80;;;;;;;21.01;60.93;102673.09;5012766;28;20037;-73
2021/08/23 08:44:34;;;;;;;5.78;2.20;;;;;;;20.95;61.35;102669.19;5011427;28;20034;-72
2021/08/23 08:47:00;;;;;;;6.43;2.40;;;;;;;21.13;59.28;102679.06;5012635;28;20437;-73
2021/08/23 08:49:28;;;;;;;5.65;2.33;;;;;;;21.17;58.05;102671.44;5012622;28;20037;-73
2021/08/23 08:51:55;;;;;;;5.68;2.10;;;;;;;21.08;58.64;102674.16;5011794;28;20481;-73
2021/08/23 08:54:20;;;;;;;7.32;2.20;;;;;;;21.18;57.34;102674.00;5012209;28;20054;-73
2021/08/23 08:56:45;;;;;;;4.57;1.90;;;;;;;21.49;59.73;102678.81;5011619;28;20073;-73
2021/08/23 08:59:12;;;;;;;6.57;2.10;;;;;;;21.71;56.42;102680.03;4995068;28;20508;-73
2021/08/23 09:01:38;;;;;;;9.15;2.15;;;;;;;21.56;58.51;102684.44;5011983;28;20026;-73
2021/08/23 09:04:04;;;;;;;7.78;2.13;;;;;;;21.63;57.81;102680.03;5016396;28;20095;-73
2021/08/23 09:06:40;;;;;;;7.57;2.40;;;;;;;22.26;55.98;102685.75;5016496;28;20030;-73
2021/08/23 09:09:13;;;;;;;7.80;2.50;;;;;;;22.51;54.86;102684.72;5016361;28;20401;-73
2021/08/23 09:11:42;;;;;;;6.38;2.08;;;;;;;23.04;53.13;102687.72;5015710;28;20030;-73
2021/08/23 09:14:09;;;;;;;9.07;2.50;;;;;;;24.42;51.03;102683.31;4999026;28;20034;-73
2021/08/23 09:16:40;;;;;;;9.63;2.20;;;;;;;25.33;48.63;102676.72;5016203;28;20087;-73
2021/08/23 09:19:06;;;;;;;;;;;;;;;25.95;44.79;102677.94;5016865;28;20034;-73
2021/08/23 09:21:35;;;;;;;5.18;1.80;;;;;;;27.42;42.88;102678.75;5016157;28;20128;-73
2021/08/23 09:24:01;;;;;;;5.00;2.45;;;;;;;27.44;40.67;102687.56;5016370;28;20036;-73
2021/08/23 09:26:33;;;;;;;5.60;2.60;;;;;;;28.11;40.35;102682.16;5016250;28;20037;-73
2021/08/23 09:29:08;;;;;;;3.50;1.98;;;;;;;28.13;38.60;102681.94;5015567;28;20054;-73
2021/08/23 09:31:36;;;;;;;3.85;1.90;;;;;;;28.45;37.95;102687.53;5015901;28;20060;-73
2021/08/23 09:34:04;;;;;;;4.47;2.30;;;;;;;28.35;38.12;102684.41;5015280;28;20038;-73
2021/08/23 09:36:31;;;;;;;5.03;2.15;;;;;;;28.35;37.61;102681.66;5015704;28;20041;-73
2021/08/23 09:39:06;;;;;;;5.90;1.90;;;;;;;28.14;39.06;102689.91;5015243;28;20080;-73
2021/08/23 09:41:40;;;;;;;4.22;1.90;;;;;;;28.04;38.99;102688.69;5015894;28;20041;-73
2021/08/23 09:44:11;;;;;;;3.75;1.95;;;;;;;27.34;38.53;102680.81;5015523;28;20489;-73
2021/08/23 09:46:38;;;;;;;6.88;1.75;;;;;;;27.02;39.14;102684.06;5015947;28;20026;-73
2021/08/23 09:49:06;;;;;;;2.67;1.63;;;;;;;28.08;39.51;102687.19;5015020;28;20030;-72
2021/08/23 09:51:37;;;;;;;3.97;1.92;;;;;;;28.98;38.80;102681.88;5015659;28;20034;-73
2021/08/23 09:54:29;;;;;;;5.50;2.10;;;;;;;27.90;37.04;102687.78;5013892;28;20153;-72
2021/08/23 09:56:55;;;;;;;4.53;1.70;;;;;;;28.24;36.84;102688.63;5010736;28;20046;-73
2021/08/23 09:59:29;;;;;;;4.60;2.00;;;;;;;28.14;37.75;102689.06;4996977;28;20478;-73
2021/08/23 10:01:56;;;;;;;4.28;1.60;;;;;;;27.28;38.65;102691.47;5013731;28;20033;-73
2021/08/23 10:04:23;;;;;;;7.75;1.63;;;;;;;27.89;37.45;102697.06;4996314;28;20034;-73
2021/08/23 10:06:50;;;;;;;5.13;1.75;;;;;;;28.20;38.99;102692.84;5013292;28;20044;-73
2021/08/23 10:09:19;;;;;;;3.00;1.58;;;;;;;28.36;36.81;102689.66;5014140;28;20061;-73
2021/08/23 10:11:44;;;;;;;6.35;1.75;;;;;;;28.96;35.25;102683.16;5013472;28;20092;-73
2021/08/23 10:14:10;;;;;;;7.18;1.60;;;;;;;28.75;34.79;102690.63;5013737;28;20077;-73
2021/08/23 10:16:35;;;;;;;8.48;2.33;;;;;;;28.83;39.76;102693.13;4996667;28;20103;-73
2021/08/23 10:19:02;;;;;;;7.45;2.00;;;;;;;28.75;37.08;102692.53;5013473;28;20038;-73
2021/08/23 10:21:28;;;;;;;6.22;1.63;;;;;;;28.53;35.71;102684.56;5013905;28;20108;-73
2021/08/23 10:23:56;;;;;;;3.80;1.70;;;;;;;28.67;35.56;102691.69;5013158;28;20092;-73
2021/08/23 10:26:22;;;;;;;4.88;1.95;;;;;;;28.62;34.63;102688.78;5013919;28;20026;-73
2021/08/23 10:28:50;;;;;;;4.38;1.70;;;;;;;29.09;35.92;102695.97;5013315;28;20489;-73
2021/08/23 10:31:21;;;;;;;3.38;1.88;;;;;;;29.06;35.13;102691.75;5013855;28;20030;-73
2021/08/23 10:33:48;;;;;;;4.63;1.95;;;;;;;28.95;35.90;102689.72;5013233;28;20026;-73
2021/08/23 10:36:16;;;;;;;4.22;1.85;;;;;;;28.20;36.61;102687.38;5013755;28;20037;-73
2021/08/23 10:38:43;;;;;;;3.78;1.90;;;;;;;27.07;38.82;102697.94;5013809;28;20135;-73
2021/08/23 10:41:12;;;;;;;6.88;1.70;;;;;;;27.62;36.25;102702.53;5013066;28;20045;-73
2021/08/23 10:43:49;;;;;;;5.57;1.90;;;;;;;28.21;35.73;102687.16;5013724;28;20037;-72
2021/08/23 10:46:25;;;;;;;4.95;1.65;;;;;;;28.58;33.82;102684.75;5013667;28;20038;-73
2021/08/23 10:48:51;;;;;;;4.13;1.98;;;;;;;28.79;35.80;102686.41;4995188;28;20472;-73
2021/08/23 10:51:37;;;;;;;3.72;1.65;;;;;;;28.91;34.61;102689.28;5013555;28;20038;-73
2021/08/23 10:54:21;;;;;;;4.88;1.60;;;;;;;29.01;33.41;102678.72;4847824;28;4788818;-73
2021/08/23 10:56:46;;;;;;;4.63;1.55;;;;;;;29.20;33.40;102687.03;5014586;28;20041;-73
2021/08/23 10:59:13;;;;;;;5.35;1.98;;;;;;;29.11;33.32;102689.22;5013542;28;20096;-73
2021/08/23 11:01:39;;;;;;;3.40;1.92;;;;;;;29.08;34.53;102684.16;5014452;28;20034;-73
2021/08/23 11:04:07;;;;;;;6.53;1.95;;;;;;;29.17;36.22;102681.97;5013716;28;20132;-73
2021/08/23 11:06:32;;;;;;;3.05;1.65;;;;;;;29.73;34.73;102692.16;5014019;28;20129;-73
2021/08/23 11:09:10;;;;;;;3.67;1.60;;;;;;;29.93;34.80;102690.34;5013701;28;20120;-73
2021/08/23 11:11:37;;;;;;;4.45;1.77;;;;;;;29.77;34.37;102680.75;5014308;28;20034;-73
2021/08/23 11:14:22;;;;;;;4.30;1.60;;;;;;;29.98;32.92;102682.31;5013592;28;20059;-73
2021/08/23 11:16:54;;;;;;;4.03;1.80;;;;;;;30.03;32.67;102682.47;5013907;28;20112;-73
2021/08/23 11:19:24;;;;;;;3.95;1.45;;;;;;;29.84;33.08;102682.44;5013975;28;20034;-73